sensor_id;sensor_type;location;lat;lon;timestamp;P1;durP1;ratioP1;P2;durP2;ratioP2
52456;SDS011;38369;52.840;7.082;2024-01-10T00:02:17;20.40;;;13.98;;
52456;SDS011;38369;52.840;7.082;2024-01-10T00:04:43;18.65;;;13.25;;
52456;SDS011;38369;52.840;7.082;2024-01-10T00:07:09;21.08;;;14.10;;
52456;SDS011;38369;52.840;7.082;2024-01-10T00:09:35;20.25;;;14.52;;
52456;SDS011;38369;52.840;7.082;2024-01-10T00:12:01;18.67;;;13.52;;
52456;SDS011;38369;52.840;7.082;2024-01-10T00:14:27;22.23;;;14.02;;
52456;SDS011;38369;52.840;7.082;2024-01-10T00:16:53;19.40;;;14.27;;
52456;SDS011;38369;52.840;7.082;2024-01-10T00:19:19;22.58;;;13.48;;
52456;SDS011;38369;52.840;7.082;2024-01-10T00:21:45;22.05;;;15.40;;
52456;SDS011;38369;52.840;7.082;2024-01-10T00:24:11;17.45;;;12.73;;
52456;SDS011;38369;52.840;7.082;2024-01-10T00:26:37;20.00;;;13.20;;
52456;SDS011;38369;52.840;7.082;2024-01-10T00:29:03;20.80;;;14.68;;
52456;SDS011;38369;52.840;7.082;2024-01-10T00:31:28;15.65;;;11.98;;
52456;SDS011;38369;52.840;7.082;2024-01-10T00:33:54;17.10;;;12.23;;
52456;SDS011;38369;52.840;7.082;2024-01-10T00:36:20;18.60;;;12.88;;
52456;SDS011;38369;52.840;7.082;2024-01-10T00:38:46;18.02;;;11.60;;
52456;SDS011;38369;52.840;7.082;2024-01-10T00:41:12;18.85;;;13.10;;
52456;SDS011;38369;52.840;7.082;2024-01-10T00:43:38;17.75;;;12.48;;
52456;SDS011;38369;52.840;7.082;2024-01-10T00:46:04;18.08;;;11.98;;
52456;SDS011;38369;52.840;7.082;2024-01-10T00:48:30;18.48;;;12.90;;
52456;SDS011;38369;52.840;7.082;2024-01-10T00:50:56;16.38;;;11.80;;
52456;SDS011;38369;52.840;7.082;2024-01-10T00:53:22;17.15;;;13.00;;
52456;SDS011;38369;52.840;7.082;2024-01-10T00:55:49;17.30;;;12.80;;
52456;SDS011;38369;52.840;7.082;2024-01-10T00:58:15;19.27;;;13.48;;
52456;SDS011;38369;52.840;7.082;2024-01-10T01:00:41;21.70;;;12.52;;
52456;SDS011;38369;52.840;7.082;2024-01-10T01:03:07;19.13;;;12.35;;
52456;SDS011;38369;52.840;7.082;2024-01-10T01:05:33;19.65;;;12.63;;
52456;SDS011;38369;52.840;7.082;2024-01-10T01:07:59;16.63;;;13.13;;
52456;SDS011;38369;52.840;7.082;2024-01-10T01:10:25;16.85;;;12.13;;
52456;SDS011;38369;52.840;7.082;2024-01-10T01:12:51;16.58;;;11.48;;
52456;SDS011;38369;52.840;7.082;2024-01-10T01:15:17;16.55;;;12.20;;
52456;SDS011;38369;52.840;7.082;2024-01-10T01:17:43;19.05;;;12.38;;
52456;SDS011;38369;52.840;7.082;2024-01-10T01:20:09;16.90;;;11.73;;
52456;SDS011;38369;52.840;7.082;2024-01-10T01:22:35;17.15;;;11.75;;
52456;SDS011;38369;52.840;7.082;2024-01-10T01:25:01;18.65;;;13.50;;
52456;SDS011;38369;52.840;7.082;2024-01-10T01:27:27;16.05;;;11.13;;
52456;SDS011;38369;52.840;7.082;2024-01-10T01:29:53;17.33;;;11.80;;
52456;SDS011;38369;52.840;7.082;2024-01-10T01:32:19;18.20;;;12.32;;
52456;SDS011;38369;52.840;7.082;2024-01-10T01:34:45;25.70;;;12.80;;
52456;SDS011;38369;52.840;7.082;2024-01-10T01:37:11;15.63;;;11.52;;
52456;SDS011;38369;52.840;7.082;2024-01-10T01:39:37;16.85;;;12.00;;
52456;SDS011;38369;52.840;7.082;2024-01-10T01:42:03;15.32;;;12.18;;
52456;SDS011;38369;52.840;7.082;2024-01-10T01:44:29;16.42;;;11.98;;
52456;SDS011;38369;52.840;7.082;2024-01-10T01:46:57;16.08;;;11.95;;
52456;SDS011;38369;52.840;7.082;2024-01-10T01:49:23;21.40;;;12.82;;
52456;SDS011;38369;52.840;7.082;2024-01-10T01:51:50;20.83;;;14.05;;
52456;SDS011;38369;52.840;7.082;2024-01-10T01:54:17;17.17;;;12.43;;
52456;SDS011;38369;52.840;7.082;2024-01-10T01:56:43;18.30;;;13.48;;
52456;SDS011;38369;52.840;7.082;2024-01-10T01:59:09;19.83;;;12.57;;
52456;SDS011;38369;52.840;7.082;2024-01-10T02:01:36;21.92;;;14.05;;
52456;SDS011;38369;52.840;7.082;2024-01-10T02:04:02;20.35;;;12.63;;
52456;SDS011;38369;52.840;7.082;2024-01-10T02:06:28;20.05;;;12.90;;
52456;SDS011;38369;52.840;7.082;2024-01-10T02:08:55;22.80;;;14.75;;
52456;SDS011;38369;52.840;7.082;2024-01-10T02:11:21;19.92;;;12.65;;
52456;SDS011;38369;52.840;7.082;2024-01-10T02:13:47;20.30;;;13.20;;
52456;SDS011;38369;52.840;7.082;2024-01-10T02:16:13;19.98;;;14.52;;
52456;SDS011;38369;52.840;7.082;2024-01-10T02:18:39;16.92;;;12.57;;
52456;SDS011;38369;52.840;7.082;2024-01-10T02:21:05;18.70;;;13.05;;
52456;SDS011;38369;52.840;7.082;2024-01-10T02:23:31;18.52;;;12.73;;
52456;SDS011;38369;52.840;7.082;2024-01-10T02:25:57;19.38;;;13.05;;
52456;SDS011;38369;52.840;7.082;2024-01-10T02:28:23;22.42;;;14.43;;
52456;SDS011;38369;52.840;7.082;2024-01-10T02:30:50;19.95;;;13.65;;
52456;SDS011;38369;52.840;7.082;2024-01-10T02:33:17;19.50;;;12.85;;
52456;SDS011;38369;52.840;7.082;2024-01-10T02:35:43;19.98;;;13.18;;
52456;SDS011;38369;52.840;7.082;2024-01-10T02:38:09;19.85;;;14.20;;
52456;SDS011;38369;52.840;7.082;2024-01-10T02:40:34;21.70;;;15.02;;
52456;SDS011;38369;52.840;7.082;2024-01-10T02:43:00;18.80;;;13.95;;
52456;SDS011;38369;52.840;7.082;2024-01-10T02:45:27;20.88;;;14.90;;
52456;SDS011;38369;52.840;7.082;2024-01-10T02:47:53;21.17;;;13.90;;
52456;SDS011;38369;52.840;7.082;2024-01-10T02:50:19;19.08;;;15.00;;
52456;SDS011;38369;52.840;7.082;2024-01-10T02:52:45;20.38;;;15.27;;
52456;SDS011;38369;52.840;7.082;2024-01-10T02:55:11;21.85;;;15.77;;
52456;SDS011;38369;52.840;7.082;2024-01-10T02:57:37;21.67;;;15.32;;
52456;SDS011;38369;52.840;7.082;2024-01-10T03:00:03;20.40;;;14.25;;
52456;SDS011;38369;52.840;7.082;2024-01-10T03:02:30;23.60;;;15.52;;
52456;SDS011;38369;52.840;7.082;2024-01-10T03:04:56;20.52;;;14.90;;
52456;SDS011;38369;52.840;7.082;2024-01-10T03:07:22;24.00;;;15.25;;
52456;SDS011;38369;52.840;7.082;2024-01-10T03:09:50;21.90;;;15.27;;
52456;SDS011;38369;52.840;7.082;2024-01-10T03:12:16;24.52;;;15.27;;
52456;SDS011;38369;52.840;7.082;2024-01-10T03:14:42;25.60;;;16.80;;
52456;SDS011;38369;52.840;7.082;2024-01-10T03:17:08;21.98;;;15.15;;
52456;SDS011;38369;52.840;7.082;2024-01-10T03:19:34;21.23;;;14.77;;
52456;SDS011;38369;52.840;7.082;2024-01-10T03:22:02;23.23;;;15.27;;
52456;SDS011;38369;52.840;7.082;2024-01-10T03:24:28;23.65;;;15.73;;
52456;SDS011;38369;52.840;7.082;2024-01-10T03:26:54;23.80;;;15.50;;
52456;SDS011;38369;52.840;7.082;2024-01-10T03:29:20;20.05;;;15.40;;
52456;SDS011;38369;52.840;7.082;2024-01-10T03:31:46;21.60;;;15.85;;
52456;SDS011;38369;52.840;7.082;2024-01-10T03:34:12;21.67;;;15.60;;
52456;SDS011;38369;52.840;7.082;2024-01-10T03:36:38;23.42;;;15.77;;
52456;SDS011;38369;52.840;7.082;2024-01-10T03:39:04;23.38;;;15.57;;
52456;SDS011;38369;52.840;7.082;2024-01-10T03:41:30;26.80;;;16.30;;
52456;SDS011;38369;52.840;7.082;2024-01-10T03:43:55;23.05;;;15.05;;
52456;SDS011;38369;52.840;7.082;2024-01-10T03:46:21;24.73;;;17.50;;
52456;SDS011;38369;52.840;7.082;2024-01-10T03:48:47;22.30;;;15.70;;
52456;SDS011;38369;52.840;7.082;2024-01-10T03:51:17;24.95;;;16.88;;
52456;SDS011;38369;52.840;7.082;2024-01-10T03:53:46;25.53;;;17.83;;
52456;SDS011;38369;52.840;7.082;2024-01-10T03:56:14;26.50;;;15.93;;
52456;SDS011;38369;52.840;7.082;2024-01-10T03:58:40;25.48;;;16.27;;
52456;SDS011;38369;52.840;7.082;2024-01-10T04:01:06;22.55;;;16.75;;
52456;SDS011;38369;52.840;7.082;2024-01-10T04:03:33;24.52;;;16.48;;
52456;SDS011;38369;52.840;7.082;2024-01-10T04:05:59;26.80;;;17.15;;
52456;SDS011;38369;52.840;7.082;2024-01-10T04:08:25;27.50;;;17.50;;
52456;SDS011;38369;52.840;7.082;2024-01-10T04:10:51;23.10;;;15.48;;
52456;SDS011;38369;52.840;7.082;2024-01-10T04:13:17;23.33;;;15.90;;
52456;SDS011;38369;52.840;7.082;2024-01-10T04:15:43;23.40;;;15.20;;
52456;SDS011;38369;52.840;7.082;2024-01-10T04:18:09;28.33;;;17.75;;
52456;SDS011;38369;52.840;7.082;2024-01-10T04:20:35;27.83;;;18.00;;
52456;SDS011;38369;52.840;7.082;2024-01-10T04:23:01;26.48;;;16.27;;
52456;SDS011;38369;52.840;7.082;2024-01-10T04:25:27;35.40;;;18.33;;
52456;SDS011;38369;52.840;7.082;2024-01-10T04:27:53;30.55;;;17.77;;
52456;SDS011;38369;52.840;7.082;2024-01-10T04:30:20;23.75;;;16.33;;
52456;SDS011;38369;52.840;7.082;2024-01-10T04:32:46;27.77;;;17.92;;
52456;SDS011;38369;52.840;7.082;2024-01-10T04:35:12;26.33;;;17.75;;
52456;SDS011;38369;52.840;7.082;2024-01-10T04:37:39;27.52;;;18.25;;
52456;SDS011;38369;52.840;7.082;2024-01-10T04:40:05;31.15;;;17.83;;
52456;SDS011;38369;52.840;7.082;2024-01-10T04:42:31;27.30;;;18.83;;
52456;SDS011;38369;52.840;7.082;2024-01-10T04:44:57;28.33;;;19.23;;
52456;SDS011;38369;52.840;7.082;2024-01-10T04:47:23;29.38;;;18.58;;
52456;SDS011;38369;52.840;7.082;2024-01-10T04:49:49;27.13;;;18.45;;
52456;SDS011;38369;52.840;7.082;2024-01-10T04:52:15;29.95;;;19.40;;
52456;SDS011;38369;52.840;7.082;2024-01-10T04:54:41;27.75;;;18.13;;
52456;SDS011;38369;52.840;7.082;2024-01-10T04:57:07;24.98;;;16.42;;
52456;SDS011;38369;52.840;7.082;2024-01-10T04:59:33;24.83;;;17.05;;
52456;SDS011;38369;52.840;7.082;2024-01-10T05:01:59;30.95;;;17.08;;
52456;SDS011;38369;52.840;7.082;2024-01-10T05:04:25;35.35;;;19.75;;
52456;SDS011;38369;52.840;7.082;2024-01-10T05:06:51;26.45;;;17.85;;
52456;SDS011;38369;52.840;7.082;2024-01-10T05:09:17;31.23;;;18.33;;
52456;SDS011;38369;52.840;7.082;2024-01-10T05:11:44;26.05;;;17.00;;
52456;SDS011;38369;52.840;7.082;2024-01-10T05:14:15;31.30;;;18.98;;
52456;SDS011;38369;52.840;7.082;2024-01-10T05:16:42;27.23;;;18.45;;
52456;SDS011;38369;52.840;7.082;2024-01-10T05:19:08;25.50;;;17.23;;
52456;SDS011;38369;52.840;7.082;2024-01-10T05:21:34;25.83;;;18.42;;
52456;SDS011;38369;52.840;7.082;2024-01-10T05:24:00;27.85;;;17.80;;
52456;SDS011;38369;52.840;7.082;2024-01-10T05:26:26;27.55;;;18.45;;
52456;SDS011;38369;52.840;7.082;2024-01-10T05:28:52;25.38;;;16.65;;
52456;SDS011;38369;52.840;7.082;2024-01-10T05:31:18;26.05;;;17.40;;
52456;SDS011;38369;52.840;7.082;2024-01-10T05:33:44;26.88;;;17.45;;
52456;SDS011;38369;52.840;7.082;2024-01-10T05:36:10;23.50;;;16.38;;
52456;SDS011;38369;52.840;7.082;2024-01-10T05:38:36;26.42;;;18.65;;
52456;SDS011;38369;52.840;7.082;2024-01-10T05:41:02;27.80;;;17.75;;
52456;SDS011;38369;52.840;7.082;2024-01-10T05:43:28;25.00;;;18.30;;
52456;SDS011;38369;52.840;7.082;2024-01-10T05:45:55;29.38;;;18.63;;
52456;SDS011;38369;52.840;7.082;2024-01-10T05:48:21;27.98;;;18.88;;
52456;SDS011;38369;52.840;7.082;2024-01-10T05:50:47;26.33;;;17.88;;
52456;SDS011;38369;52.840;7.082;2024-01-10T05:53:13;28.70;;;18.30;;
52456;SDS011;38369;52.840;7.082;2024-01-10T05:55:42;28.95;;;19.33;;
52456;SDS011;38369;52.840;7.082;2024-01-10T05:58:08;32.60;;;20.20;;
52456;SDS011;38369;52.840;7.082;2024-01-10T06:00:34;31.20;;;19.92;;
52456;SDS011;38369;52.840;7.082;2024-01-10T06:03:00;33.88;;;19.88;;
52456;SDS011;38369;52.840;7.082;2024-01-10T06:05:26;32.13;;;19.38;;
52456;SDS011;38369;52.840;7.082;2024-01-10T06:07:52;30.95;;;20.60;;
52456;SDS011;38369;52.840;7.082;2024-01-10T06:10:18;31.35;;;20.73;;
52456;SDS011;38369;52.840;7.082;2024-01-10T06:12:44;29.95;;;20.15;;
52456;SDS011;38369;52.840;7.082;2024-01-10T06:15:10;37.03;;;21.17;;
52456;SDS011;38369;52.840;7.082;2024-01-10T06:17:36;30.77;;;19.95;;
52456;SDS011;38369;52.840;7.082;2024-01-10T06:20:03;28.98;;;20.35;;
52456;SDS011;38369;52.840;7.082;2024-01-10T06:22:30;33.60;;;21.13;;
52456;SDS011;38369;52.840;7.082;2024-01-10T06:24:56;28.85;;;19.65;;
52456;SDS011;38369;52.840;7.082;2024-01-10T06:27:22;32.83;;;21.15;;
52456;SDS011;38369;52.840;7.082;2024-01-10T06:29:48;28.15;;;19.02;;
52456;SDS011;38369;52.840;7.082;2024-01-10T06:32:14;34.20;;;20.52;;
52456;SDS011;38369;52.840;7.082;2024-01-10T06:34:40;32.22;;;20.02;;
52456;SDS011;38369;52.840;7.082;2024-01-10T06:37:06;35.95;;;20.80;;
52456;SDS011;38369;52.840;7.082;2024-01-10T06:39:33;31.50;;;20.50;;
52456;SDS011;38369;52.840;7.082;2024-01-10T06:41:59;29.20;;;19.02;;
52456;SDS011;38369;52.840;7.082;2024-01-10T06:44:25;31.85;;;20.65;;
52456;SDS011;38369;52.840;7.082;2024-01-10T06:46:53;30.17;;;20.17;;
52456;SDS011;38369;52.840;7.082;2024-01-10T06:49:19;33.67;;;20.10;;
52456;SDS011;38369;52.840;7.082;2024-01-10T06:51:45;30.13;;;18.77;;
52456;SDS011;38369;52.840;7.082;2024-01-10T06:54:11;33.75;;;21.25;;
52456;SDS011;38369;52.840;7.082;2024-01-10T06:56:38;30.90;;;21.05;;
52456;SDS011;38369;52.840;7.082;2024-01-10T06:59:04;28.08;;;20.25;;
52456;SDS011;38369;52.840;7.082;2024-01-10T07:01:30;27.52;;;18.23;;
52456;SDS011;38369;52.840;7.082;2024-01-10T07:03:57;28.85;;;19.95;;
52456;SDS011;38369;52.840;7.082;2024-01-10T07:06:23;28.23;;;19.85;;
52456;SDS011;38369;52.840;7.082;2024-01-10T07:08:49;28.90;;;19.33;;
52456;SDS011;38369;52.840;7.082;2024-01-10T07:11:16;28.63;;;20.25;;
52456;SDS011;38369;52.840;7.082;2024-01-10T07:13:42;30.55;;;21.70;;
52456;SDS011;38369;52.840;7.082;2024-01-10T07:16:08;34.95;;;20.77;;
52456;SDS011;38369;52.840;7.082;2024-01-10T07:18:34;32.50;;;19.45;;
52456;SDS011;38369;52.840;7.082;2024-01-10T07:21:00;24.95;;;18.88;;
52456;SDS011;38369;52.840;7.082;2024-01-10T07:23:26;28.08;;;18.23;;
52456;SDS011;38369;52.840;7.082;2024-01-10T07:25:52;27.95;;;19.65;;
52456;SDS011;38369;52.840;7.082;2024-01-10T07:28:18;28.33;;;18.83;;
52456;SDS011;38369;52.840;7.082;2024-01-10T07:30:44;27.55;;;17.27;;
52456;SDS011;38369;52.840;7.082;2024-01-10T07:33:11;28.02;;;18.90;;
52456;SDS011;38369;52.840;7.082;2024-01-10T07:35:37;27.70;;;19.80;;
52456;SDS011;38369;52.840;7.082;2024-01-10T07:38:06;25.23;;;18.15;;
52456;SDS011;38369;52.840;7.082;2024-01-10T07:40:32;26.38;;;17.92;;
52456;SDS011;38369;52.840;7.082;2024-01-10T07:42:58;26.15;;;18.65;;
52456;SDS011;38369;52.840;7.082;2024-01-10T07:45:25;24.00;;;17.55;;
52456;SDS011;38369;52.840;7.082;2024-01-10T07:47:51;27.45;;;19.55;;
52456;SDS011;38369;52.840;7.082;2024-01-10T07:50:17;29.95;;;19.33;;
52456;SDS011;38369;52.840;7.082;2024-01-10T07:52:44;23.23;;;17.35;;
52456;SDS011;38369;52.840;7.082;2024-01-10T07:55:13;26.10;;;18.73;;
52456;SDS011;38369;52.840;7.082;2024-01-10T07:57:40;27.25;;;19.27;;
52456;SDS011;38369;52.840;7.082;2024-01-10T08:00:07;26.33;;;18.23;;
52456;SDS011;38369;52.840;7.082;2024-01-10T08:02:37;25.95;;;18.52;;
52456;SDS011;38369;52.840;7.082;2024-01-10T08:05:04;22.60;;;17.55;;
52456;SDS011;38369;52.840;7.082;2024-01-10T08:07:30;24.33;;;17.92;;
52456;SDS011;38369;52.840;7.082;2024-01-10T08:09:58;23.45;;;16.48;;
52456;SDS011;38369;52.840;7.082;2024-01-10T08:12:24;22.88;;;16.83;;
52456;SDS011;38369;52.840;7.082;2024-01-10T08:14:50;25.15;;;17.27;;
52456;SDS011;38369;52.840;7.082;2024-01-10T08:17:16;22.85;;;16.95;;
52456;SDS011;38369;52.840;7.082;2024-01-10T08:19:42;24.77;;;16.42;;
52456;SDS011;38369;52.840;7.082;2024-01-10T08:22:08;26.13;;;16.52;;
52456;SDS011;38369;52.840;7.082;2024-01-10T08:24:34;26.42;;;17.70;;
52456;SDS011;38369;52.840;7.082;2024-01-10T08:27:00;22.23;;;16.77;;
52456;SDS011;38369;52.840;7.082;2024-01-10T08:29:26;21.05;;;15.60;;
52456;SDS011;38369;52.840;7.082;2024-01-10T08:31:56;23.30;;;15.90;;
52456;SDS011;38369;52.840;7.082;2024-01-10T08:34:22;25.65;;;17.35;;
52456;SDS011;38369;52.840;7.082;2024-01-10T08:36:48;27.65;;;17.92;;
52456;SDS011;38369;52.840;7.082;2024-01-10T08:39:16;24.42;;;17.10;;
52456;SDS011;38369;52.840;7.082;2024-01-10T08:41:42;29.35;;;19.58;;
52456;SDS011;38369;52.840;7.082;2024-01-10T08:44:12;29.20;;;18.30;;
52456;SDS011;38369;52.840;7.082;2024-01-10T08:46:38;28.58;;;18.73;;
52456;SDS011;38369;52.840;7.082;2024-01-10T08:49:04;31.25;;;19.33;;
52456;SDS011;38369;52.840;7.082;2024-01-10T08:51:30;33.25;;;18.52;;
52456;SDS011;38369;52.840;7.082;2024-01-10T08:53:56;27.52;;;19.20;;
52456;SDS011;38369;52.840;7.082;2024-01-10T08:56:22;27.58;;;18.50;;
52456;SDS011;38369;52.840;7.082;2024-01-10T08:58:49;26.98;;;17.80;;
52456;SDS011;38369;52.840;7.082;2024-01-10T09:01:15;30.20;;;18.67;;
52456;SDS011;38369;52.840;7.082;2024-01-10T09:03:41;26.13;;;18.52;;
52456;SDS011;38369;52.840;7.082;2024-01-10T09:06:07;30.30;;;18.67;;
52456;SDS011;38369;52.840;7.082;2024-01-10T09:08:33;28.55;;;18.33;;
52456;SDS011;38369;52.840;7.082;2024-01-10T09:10:59;27.08;;;19.10;;
52456;SDS011;38369;52.840;7.082;2024-01-10T09:13:25;28.15;;;19.17;;
52456;SDS011;38369;52.840;7.082;2024-01-10T09:15:52;28.85;;;18.48;;
52456;SDS011;38369;52.840;7.082;2024-01-10T09:18:18;32.45;;;18.90;;
52456;SDS011;38369;52.840;7.082;2024-01-10T09:20:44;27.40;;;17.23;;
52456;SDS011;38369;52.840;7.082;2024-01-10T09:23:10;28.40;;;19.27;;
52456;SDS011;38369;52.840;7.082;2024-01-10T09:25:36;29.63;;;18.83;;
52456;SDS011;38369;52.840;7.082;2024-01-10T09:28:04;24.98;;;15.75;;
52456;SDS011;38369;52.840;7.082;2024-01-10T09:30:30;27.95;;;16.95;;
52456;SDS011;38369;52.840;7.082;2024-01-10T09:32:55;28.00;;;18.42;;
52456;SDS011;38369;52.840;7.082;2024-01-10T09:35:22;27.65;;;17.60;;
52456;SDS011;38369;52.840;7.082;2024-01-10T09:37:48;33.70;;;21.10;;
52456;SDS011;38369;52.840;7.082;2024-01-10T09:40:15;26.13;;;17.48;;
52456;SDS011;38369;52.840;7.082;2024-01-10T09:42:43;30.13;;;18.35;;
52456;SDS011;38369;52.840;7.082;2024-01-10T09:45:09;24.13;;;16.75;;
52456;SDS011;38369;52.840;7.082;2024-01-10T09:47:38;28.92;;;16.63;;
52456;SDS011;38369;52.840;7.082;2024-01-10T09:50:05;26.90;;;16.23;;
52456;SDS011;38369;52.840;7.082;2024-01-10T09:52:35;26.38;;;15.93;;
52456;SDS011;38369;52.840;7.082;2024-01-10T09:55:03;28.38;;;17.10;;
52456;SDS011;38369;52.840;7.082;2024-01-10T09:57:30;26.52;;;16.42;;
52456;SDS011;38369;52.840;7.082;2024-01-10T09:59:56;20.70;;;14.10;;
52456;SDS011;38369;52.840;7.082;2024-01-10T10:02:22;24.42;;;14.98;;
52456;SDS011;38369;52.840;7.082;2024-01-10T10:10:09;23.25;;;14.32;;
52456;SDS011;38369;52.840;7.082;2024-01-10T10:12:43;23.55;;;14.50;;
52456;SDS011;38369;52.840;7.082;2024-01-10T10:15:10;21.98;;;13.88;;
52456;SDS011;38369;52.840;7.082;2024-01-10T10:17:37;17.42;;;12.63;;
52456;SDS011;38369;52.840;7.082;2024-01-10T10:20:10;22.45;;;14.43;;
52456;SDS011;38369;52.840;7.082;2024-01-10T10:22:36;20.85;;;13.77;;
52456;SDS011;38369;52.840;7.082;2024-01-10T10:25:02;21.42;;;14.20;;
52456;SDS011;38369;52.840;7.082;2024-01-10T10:27:29;23.60;;;13.85;;
52456;SDS011;38369;52.840;7.082;2024-01-10T10:29:55;23.23;;;13.75;;
52456;SDS011;38369;52.840;7.082;2024-01-10T10:32:21;22.48;;;13.55;;
52456;SDS011;38369;52.840;7.082;2024-01-10T10:34:47;20.30;;;13.75;;
52456;SDS011;38369;52.840;7.082;2024-01-10T10:37:13;15.90;;;11.82;;
52456;SDS011;38369;52.840;7.082;2024-01-10T10:39:39;19.13;;;12.85;;
52456;SDS011;38369;52.840;7.082;2024-01-10T10:42:06;20.10;;;12.10;;
52456;SDS011;38369;52.840;7.082;2024-01-10T10:44:33;21.70;;;11.82;;
52456;SDS011;38369;52.840;7.082;2024-01-10T10:47:03;22.27;;;13.93;;
52456;SDS011;38369;52.840;7.082;2024-01-10T10:49:31;20.25;;;12.65;;
52456;SDS011;38369;52.840;7.082;2024-01-10T10:52:00;19.55;;;13.02;;
52456;SDS011;38369;52.840;7.082;2024-01-10T10:54:28;17.88;;;11.70;;
52456;SDS011;38369;52.840;7.082;2024-01-10T10:56:57;17.83;;;11.45;;
52456;SDS011;38369;52.840;7.082;2024-01-10T10:59:24;18.80;;;11.10;;
52456;SDS011;38369;52.840;7.082;2024-01-10T11:01:51;17.17;;;11.88;;
52456;SDS011;38369;52.840;7.082;2024-01-10T11:04:17;18.75;;;11.02;;
52456;SDS011;38369;52.840;7.082;2024-01-10T11:06:44;14.90;;;9.73;;
52456;SDS011;38369;52.840;7.082;2024-01-10T11:09:10;17.02;;;11.48;;
52456;SDS011;38369;52.840;7.082;2024-01-10T11:11:50;14.68;;;9.73;;
52456;SDS011;38369;52.840;7.082;2024-01-10T11:17:17;14.82;;;9.93;;
52456;SDS011;38369;52.840;7.082;2024-01-10T11:19:56;13.77;;;9.75;;
52456;SDS011;38369;52.840;7.082;2024-01-10T11:25:09;11.30;;;8.93;;
52456;SDS011;38369;52.840;7.082;2024-01-10T11:27:36;14.25;;;10.13;;
52456;SDS011;38369;52.840;7.082;2024-01-10T11:30:02;15.13;;;9.23;;
52456;SDS011;38369;52.840;7.082;2024-01-10T11:32:30;13.55;;;8.98;;
52456;SDS011;38369;52.840;7.082;2024-01-10T11:35:00;14.88;;;9.55;;
52456;SDS011;38369;52.840;7.082;2024-01-10T11:37:59;13.13;;;9.60;;
52456;SDS011;38369;52.840;7.082;2024-01-10T11:40:45;13.98;;;9.35;;
52456;SDS011;38369;52.840;7.082;2024-01-10T11:43:12;14.50;;;9.60;;
52456;SDS011;38369;52.840;7.082;2024-01-10T11:45:50;14.02;;;9.48;;
52456;SDS011;38369;52.840;7.082;2024-01-10T11:48:16;14.07;;;9.18;;
52456;SDS011;38369;52.840;7.082;2024-01-10T11:50:43;14.73;;;10.52;;
52456;SDS011;38369;52.840;7.082;2024-01-10T11:53:09;17.85;;;9.48;;
52456;SDS011;38369;52.840;7.082;2024-01-10T11:55:46;14.60;;;8.93;;
52456;SDS011;38369;52.840;7.082;2024-01-10T11:58:13;18.92;;;10.52;;
52456;SDS011;38369;52.840;7.082;2024-01-10T12:00:39;15.63;;;10.48;;
52456;SDS011;38369;52.840;7.082;2024-01-10T12:03:07;13.27;;;9.50;;
52456;SDS011;38369;52.840;7.082;2024-01-10T12:05:36;13.70;;;9.85;;
52456;SDS011;38369;52.840;7.082;2024-01-10T12:08:06;12.10;;;8.75;;
52456;SDS011;38369;52.840;7.082;2024-01-10T12:10:32;16.42;;;10.48;;
52456;SDS011;38369;52.840;7.082;2024-01-10T12:13:01;16.35;;;10.57;;
52456;SDS011;38369;52.840;7.082;2024-01-10T12:15:27;15.15;;;10.10;;
52456;SDS011;38369;52.840;7.082;2024-01-10T12:17:54;15.05;;;9.65;;
52456;SDS011;38369;52.840;7.082;2024-01-10T12:20:20;15.65;;;9.50;;
52456;SDS011;38369;52.840;7.082;2024-01-10T12:22:46;15.60;;;10.02;;
52456;SDS011;38369;52.840;7.082;2024-01-10T12:25:12;19.75;;;9.98;;
52456;SDS011;38369;52.840;7.082;2024-01-10T12:27:39;15.25;;;10.00;;
52456;SDS011;38369;52.840;7.082;2024-01-10T12:30:05;11.68;;;8.18;;
52456;SDS011;38369;52.840;7.082;2024-01-10T12:32:32;13.05;;;9.05;;
52456;SDS011;38369;52.840;7.082;2024-01-10T12:35:02;16.05;;;9.68;;
52456;SDS011;38369;52.840;7.082;2024-01-10T12:37:29;10.95;;;7.68;;
52456;SDS011;38369;52.840;7.082;2024-01-10T12:39:55;14.23;;;8.65;;
52456;SDS011;38369;52.840;7.082;2024-01-10T12:42:21;15.23;;;9.48;;
52456;SDS011;38369;52.840;7.082;2024-01-10T12:44:47;16.27;;;10.15;;
52456;SDS011;38369;52.840;7.082;2024-01-10T12:47:19;14.95;;;9.50;;
52456;SDS011;38369;52.840;7.082;2024-01-10T12:49:46;14.10;;;9.40;;
52456;SDS011;38369;52.840;7.082;2024-01-10T12:52:12;14.68;;;9.95;;
52456;SDS011;38369;52.840;7.082;2024-01-10T12:54:39;18.63;;;10.52;;
52456;SDS011;38369;52.840;7.082;2024-01-10T12:57:05;14.07;;;9.35;;
52456;SDS011;38369;52.840;7.082;2024-01-10T12:59:32;14.00;;;10.18;;
52456;SDS011;38369;52.840;7.082;2024-01-10T13:01:58;15.02;;;9.10;;
52456;SDS011;38369;52.840;7.082;2024-01-10T13:04:24;19.48;;;10.48;;
52456;SDS011;38369;52.840;7.082;2024-01-10T13:06:50;19.10;;;10.63;;
52456;SDS011;38369;52.840;7.082;2024-01-10T13:09:16;13.95;;;9.48;;
52456;SDS011;38369;52.840;7.082;2024-01-10T13:11:42;13.30;;;9.27;;
52456;SDS011;38369;52.840;7.082;2024-01-10T13:14:08;12.10;;;8.85;;
52456;SDS011;38369;52.840;7.082;2024-01-10T13:16:34;11.75;;;9.80;;
52456;SDS011;38369;52.840;7.082;2024-01-10T13:19:00;13.63;;;9.32;;
52456;SDS011;38369;52.840;7.082;2024-01-10T13:21:26;13.43;;;9.30;;
52456;SDS011;38369;52.840;7.082;2024-01-10T13:23:52;15.95;;;9.80;;
52456;SDS011;38369;52.840;7.082;2024-01-10T13:26:19;14.95;;;9.40;;
52456;SDS011;38369;52.840;7.082;2024-01-10T13:28:45;15.48;;;9.63;;
52456;SDS011;38369;52.840;7.082;2024-01-10T13:31:11;15.32;;;9.57;;
52456;SDS011;38369;52.840;7.082;2024-01-10T13:33:37;15.73;;;10.07;;
52456;SDS011;38369;52.840;7.082;2024-01-10T13:36:06;14.18;;;9.70;;
52456;SDS011;38369;52.840;7.082;2024-01-10T13:38:32;14.98;;;10.15;;
52456;SDS011;38369;52.840;7.082;2024-01-10T13:40:58;14.50;;;9.18;;
52456;SDS011;38369;52.840;7.082;2024-01-10T13:43:24;15.07;;;9.13;;
52456;SDS011;38369;52.840;7.082;2024-01-10T13:45:50;19.52;;;11.43;;
52456;SDS011;38369;52.840;7.082;2024-01-10T13:48:17;17.35;;;10.43;;
52456;SDS011;38369;52.840;7.082;2024-01-10T13:50:43;17.88;;;10.32;;
52456;SDS011;38369;52.840;7.082;2024-01-10T13:53:10;13.27;;;9.50;;
52456;SDS011;38369;52.840;7.082;2024-01-10T13:55:36;13.80;;;8.82;;
52456;SDS011;38369;52.840;7.082;2024-01-10T13:58:02;15.60;;;9.43;;
52456;SDS011;38369;52.840;7.082;2024-01-10T14:00:28;15.25;;;9.57;;
52456;SDS011;38369;52.840;7.082;2024-01-10T14:02:54;21.17;;;11.35;;
52456;SDS011;38369;52.840;7.082;2024-01-10T14:05:25;20.23;;;10.13;;
52456;SDS011;38369;52.840;7.082;2024-01-10T14:07:51;16.92;;;8.75;;
52456;SDS011;38369;52.840;7.082;2024-01-10T14:10:17;14.77;;;9.75;;
52456;SDS011;38369;52.840;7.082;2024-01-10T14:12:44;14.55;;;9.27;;
52456;SDS011;38369;52.840;7.082;2024-01-10T14:15:10;14.00;;;9.18;;
52456;SDS011;38369;52.840;7.082;2024-01-10T14:17:36;18.15;;;10.18;;
52456;SDS011;38369;52.840;7.082;2024-01-10T14:20:02;15.00;;;10.50;;
52456;SDS011;38369;52.840;7.082;2024-01-10T14:22:28;16.52;;;8.80;;
52456;SDS011;38369;52.840;7.082;2024-01-10T14:24:54;12.40;;;8.85;;
52456;SDS011;38369;52.840;7.082;2024-01-10T14:27:20;14.85;;;9.30;;
52456;SDS011;38369;52.840;7.082;2024-01-10T14:29:47;17.98;;;9.95;;
52456;SDS011;38369;52.840;7.082;2024-01-10T14:32:13;14.30;;;9.57;;